Time;durP1;ratioP1;P1;durP2;ratioP2;P2;SDS_P1;SDS_P2;PMS_P1;PMS_P2;Temp;Humidity;BMP_temperature;BMP_pressure;BME280_temperature;BME280_humidity;BME280_pressure;Samples;Min_cycle;Max_cycle;Signal;HPM_P1;HPM_P2
2022/04/08 00:01:27;;;;;;;1.83;0.50;;;22.40;75.80;;;;;;5054381;23;20026;-45
2022/04/08 00:03:32;;;;;;;1.27;0.52;;;22.40;75.70;;;;;;5053558;23;20033;-45
2022/04/08 00:05:55;;;;;;;1.23;0.50;;;22.40;75.60;;;;;;5066085;23;20078;-45
2022/04/08 00:07:57;;;;;;;1.05;0.50;;;22.50;75.70;;;;;;5025748;23;20660;-50
2022/04/08 00:09:59;;;;;;;4.85;0.70;;;22.50;75.60;;;;;;5015151;23;20070;-46
2022/04/08 00:12:01;;;;;;;1.92;0.47;;;22.50;75.50;;;;;;5037739;23;20072;-44
2022/04/08 00:14:04;;;;;;;1.02;0.60;;;22.60;75.50;;;;;;5009375;23;20030;-46
2022/04/08 00:16:10;;;;;;;0.68;0.30;;;22.50;75.40;;;;;;5004639;23;20030;-50
2022/04/08 00:18:12;;;;;;;2.03;0.50;;;22.60;75.30;;;;;;5038999;23;20026;-43
2022/04/08 00:20:15;;;;;;;4.15;0.52;;;22.60;75.20;;;;;;5010450;23;20096;-45
2022/04/08 00:22:21;;;;;;;1.88;0.55;;;22.60;75.30;;;;;;5035565;23;20033;-46
2022/04/08 00:24:23;;;;;;;1.60;0.52;;;22.60;75.20;;;;;;5037255;23;20029;-51
2022/04/08 00:26:25;;;;;;;2.17;0.57;;;22.60;75.20;;;;;;5041478;23;20021;-46
2022/04/08 00:28:27;;;;;;;1.17;0.75;;;22.60;75.10;;;;;;5042323;23;20029;-46
2022/04/08 00:30:29;;;;;;;4.00;0.50;;;22.70;75.10;;;;;;5037383;23;20087;-48
2022/04/08 00:32:33;;;;;;;0.73;0.40;;;22.60;74.90;;;;;;5040734;23;20064;-46
2022/04/08 00:34:36;;;;;;;2.72;0.40;;;22.70;74.90;;;;;;5044300;23;20025;-49
2022/04/08 00:36:38;;;;;;;0.73;0.47;;;22.70;74.80;;;;;;5037571;23;20025;-45
2022/04/08 00:38:40;;;;;;;0.75;0.40;;;22.70;74.80;;;;;;5037619;23;20037;-50
2022/04/08 00:40:42;;;;;;;0.68;0.30;;;22.70;74.70;;;;;;5016930;23;20033;-52
2022/04/08 00:42:44;;;;;;;1.90;0.40;;;22.70;74.60;;;;;;5014233;23;20026;-52
2022/04/08 00:44:46;;;;;;;0.30;0.30;;;22.80;74.60;;;;;;5035404;23;20533;-53
2022/04/08 00:46:49;;;;;;;1.25;0.50;;;22.80;74.50;;;;;;5038716;23;20026;-47
2022/04/08 00:48:51;;;;;;;0.30;0.30;;;22.80;74.00;;;;;;5044868;23;20140;-48
2022/04/08 00:50:53;;;;;;;0.60;0.45;;;22.80;74.40;;;;;;5036215;23;20383;-46
2022/04/08 00:52:56;;;;;;;0.43;0.40;;;22.80;74.40;;;;;;5037664;23;20743;-51
2022/04/08 00:54:58;;;;;;;0.77;0.38;;;22.90;74.30;;;;;;5042318;23;20087;-50
2022/04/08 00:57:01;;;;;;;0.35;0.35;;;22.90;74.40;;;;;;5012153;23;20034;-47
2022/04/08 00:59:04;;;;;;;0.52;0.30;;;22.90;74.20;;;;;;5035516;23;20036;-48
2022/04/08 01:01:06;;;;;;;0.32;0.32;;;22.90;74.20;;;;;;5020641;23;20037;-47
2022/04/08 01:03:08;;;;;;;0.30;0.30;;;22.90;74.20;;;;;;5045914;23;20855;-48
2022/04/08 01:05:11;;;;;;;0.73;0.35;;;23.00;74.10;;;;;;5012908;23;20124;-48
2022/04/08 01:07:13;;;;;;;1.15;0.30;;;23.00;74.10;;;;;;5038157;23;20033;-47
2022/04/08 01:09:16;;;;;;;1.02;0.57;;;23.00;73.90;;;;;;5015295;23;20084;-46
2022/04/08 01:11:18;;;;;;;0.57;0.40;;;23.10;74.00;;;;;;5044108;23;20033;-48
2022/04/08 01:13:21;;;;;;;0.70;0.50;;;23.10;73.80;;;;;;5037712;23;20847;-47
2022/04/08 01:15:25;;;;;;;0.63;0.40;;;23.10;73.80;;;;;;5038425;23;20555;-47
2022/04/08 01:17:28;;;;;;;1.08;0.60;;;23.10;74.00;;;;;;5044148;23;20052;-43
2022/04/08 01:19:30;;;;;;;0.53;0.53;;;23.20;73.60;;;;;;5043288;23;20685;-49
2022/04/08 01:21:32;;;;;;;0.95;0.40;;;23.10;73.70;;;;;;5032933;23;20381;-47
2022/04/08 01:23:35;;;;;;;0.47;0.30;;;23.20;73.70;;;;;;5035363;23;20035;-49
2022/04/08 01:25:37;;;;;;;1.23;0.57;;;23.20;73.70;;;;;;5016222;23;20452;-48
2022/04/08 01:27:41;;;;;;;0.60;0.50;;;23.20;73.60;;;;;;5035451;23;20033;-45
2022/04/08 01:29:42;;;;;;;;;;;23.20;73.60;;;;;;5033472;23;20629;-46
2022/04/08 01:31:45;;;;;;;1.02;0.40;;;23.20;74.30;;;;;;5009698;23;19975;-48
2022/04/08 01:33:48;;;;;;;0.88;0.40;;;23.20;74.20;;;;;;5041374;23;20033;-49
2022/04/08 01:35:50;;;;;;;2.28;0.60;;;23.20;73.70;;;;;;5035122;23;20084;-48
2022/04/08 01:37:52;;;;;;;1.08;0.60;;;23.20;73.70;;;;;;5034018;23;20561;-47
2022/04/08 01:39:54;;;;;;;0.75;0.40;;;23.20;73.60;;;;;;5015207;23;20132;-48
2022/04/08 01:41:56;;;;;;;2.25;0.70;;;23.30;73.70;;;;;;5009464;23;20544;-47
2022/04/08 01:43:59;;;;;;;1.30;0.40;;;23.30;73.80;;;;;;5033375;23;20029;-51
2022/04/08 01:46:01;;;;;;;2.43;0.90;;;23.30;73.70;;;;;;5036730;23;20049;-48
2022/04/08 01:48:03;;;;;;;0.85;0.35;;;23.30;73.60;;;;;;5041392;23;20354;-45
2022/04/08 01:50:07;;;;;;;1.97;0.83;;;23.30;73.60;;;;;;5035116;23;20033;-48
2022/04/08 01:52:09;;;;;;;1.50;0.40;;;23.30;73.70;;;;;;5035842;23;20115;-48
2022/04/08 01:54:12;;;;;;;0.40;0.40;;;23.30;73.60;;;;;;5041907;23;20414;-47
2022/04/08 01:56:14;;;;;;;1.57;0.50;;;23.30;73.50;;;;;;5012197;23;20485;-46
2022/04/08 01:58:17;;;;;;;0.70;0.50;;;23.40;73.50;;;;;;5035795;23;20803;-47
2022/04/08 02:00:19;;;;;;;0.20;0.10;;;23.40;73.60;;;;;;5036064;23;20112;-46
2022/04/08 02:02:21;;;;;;;0.60;0.40;;;23.40;73.60;;;;;;5015414;23;20653;-45
2022/04/08 02:04:23;;;;;;;1.23;0.40;;;23.40;74.20;;;;;;5008280;23;20025;-51
2022/04/08 02:06:25;;;;;;;1.40;0.40;;;23.50;73.60;;;;;;5037782;23;20061;-51
2022/04/08 02:08:28;;;;;;;0.30;0.30;;;23.40;73.60;;;;;;5040994;23;20030;-47
2022/04/08 02:10:30;;;;;;;1.45;0.35;;;23.50;73.60;;;;;;5014399;23;20781;-50
2022/04/08 02:12:32;;;;;;;1.98;0.60;;;23.50;73.70;;;;;;5038240;23;20033;-45
2022/04/08 02:14:34;;;;;;;1.83;0.57;;;23.50;73.60;;;;;;5008678;23;20041;-43
2022/04/08 02:16:36;;;;;;;3.92;1.05;;;23.50;73.60;;;;;;5017349;23;20112;-48
2022/04/08 02:18:39;;;;;;;0.25;0.25;;;23.50;73.50;;;;;;5040408;23;20029;-50
2022/04/08 02:20:41;;;;;;;3.08;0.40;;;23.50;73.50;;;;;;5037962;23;20029;-51
2022/04/08 02:22:44;;;;;;;1.05;0.38;;;23.50;73.40;;;;;;5041761;23;20045;-47
2022/04/08 02:24:47;;;;;;;1.88;0.30;;;23.50;73.50;;;;;;5017984;23;20137;-49
2022/04/08 02:26:49;;;;;;;0.75;0.40;;;23.60;73.50;;;;;;5034345;23;20112;-44
2022/04/08 02:28:51;;;;;;;1.25;0.50;;;23.50;73.50;;;;;;5012289;23;20723;-51
2022/04/08 02:30:55;;;;;;;0.82;0.40;;;23.60;73.40;;;;;;5045745;23;20491;-45
2022/04/08 02:32:58;;;;;;;0.77;0.50;;;23.60;73.40;;;;;;5017648;23;20762;-46
2022/04/08 02:35:00;;;;;;;2.05;0.40;;;23.60;73.40;;;;;;5039331;23;20123;-44
2022/04/08 02:37:03;;;;;;;3.50;1.08;;;23.60;73.40;;;;;;5041739;23;20029;-50
2022/04/08 02:39:05;;;;;;;1.70;0.68;;;23.60;73.60;;;;;;5044967;23;20025;-48
2022/04/08 02:41:07;;;;;;;0.65;0.60;;;23.60;73.70;;;;;;5041557;23;20257;-52
2022/04/08 02:43:09;;;;;;;3.53;0.47;;;23.60;73.80;;;;;;5039809;23;20032;-46
2022/04/08 02:45:11;;;;;;;1.70;0.43;;;23.60;73.80;;;;;;5045282;23;20428;-49
2022/04/08 02:47:14;;;;;;;6.90;0.70;;;23.60;73.70;;;;;;5042562;23;21132;-47
2022/04/08 02:49:16;;;;;;;0.40;0.32;;;23.70;73.70;;;;;;5041632;23;20029;-48
2022/04/08 02:51:18;;;;;;;0.77;0.52;;;23.70;73.70;;;;;;5043380;23;20060;-47
2022/04/08 02:53:20;;;;;;;2.13;0.60;;;23.70;73.60;;;;;;5044320;23;20112;-46
2022/04/08 02:55:22;;;;;;;2.80;0.60;;;23.70;73.50;;;;;;5039157;23;20025;-49
2022/04/08 02:57:24;;;;;;;3.47;0.60;;;23.70;73.40;;;;;;5011064;23;20033;-47
2022/04/08 02:59:26;;;;;;;1.60;0.52;;;23.70;73.40;;;;;;5044318;23;20459;-50
2022/04/08 03:01:28;;;;;;;1.42;0.70;;;23.70;73.30;;;;;;5045487;23;20811;-48
2022/04/08 03:03:31;;;;;;;1.02;0.30;;;23.70;73.20;;;;;;5040351;23;20057;-49
2022/04/08 03:05:33;;;;;;;1.42;0.70;;;23.70;73.30;;;;;;5037775;23;20111;-50
2022/04/08 03:07:35;;;;;;;2.50;0.70;;;23.80;73.30;;;;;;5043672;23;20036;-53
2022/04/08 03:09:38;;;;;;;1.10;0.50;;;23.70;73.20;;;;;;5037430;23;20094;-48
2022/04/08 03:11:40;;;;;;;1.13;0.53;;;23.70;73.30;;;;;;5038047;23;20079;-45
2022/04/08 03:13:42;;;;;;;1.92;0.63;;;23.80;73.30;;;;;;5044648;23;20080;-48
2022/04/08 03:15:44;;;;;;;3.35;0.70;;;23.80;73.20;;;;;;5037083;23;20160;-52
2022/04/08 03:17:49;;;;;;;0.98;0.43;;;23.80;73.20;;;;;;5007819;23;20034;-51
2022/04/08 03:19:51;;;;;;;1.70;0.55;;;23.80;73.10;;;;;;5035687;23;20125;-46
2022/04/08 03:21:54;;;;;;;1.30;0.75;;;23.80;73.00;;;;;;5046152;23;20097;-46
2022/04/08 03:23:56;;;;;;;1.90;0.70;;;23.80;72.90;;;;;;5042227;23;20060;-44
2022/04/08 03:25:58;;;;;;;2.47;0.73;;;23.80;72.80;;;;;;5041052;23;20295;-48
2022/04/08 03:28:00;;;;;;;1.70;0.80;;;23.80;72.70;;;;;;5047013;23;20806;-47
2022/04/08 03:30:03;;;;;;;2.50;0.70;;;23.80;72.60;;;;;;5046218;23;20843;-43
2022/04/08 03:32:05;;;;;;;2.75;0.90;;;23.80;72.60;;;;;;5015479;23;20040;-42
2022/04/08 03:34:07;;;;;;;2.08;0.77;;;23.80;72.60;;;;;;5046847;23;20041;-46
2022/04/08 03:36:10;;;;;;;2.00;0.75;;;23.70;72.50;;;;;;5050987;23;20088;-48
2022/04/08 03:38:12;;;;;;;1.60;0.60;;;23.70;72.50;;;;;;5049842;23;21092;-47
2022/04/08 03:40:14;;;;;;;1.10;0.43;;;23.70;72.50;;;;;;5043856;23;20025;-45
2022/04/08 03:42:16;;;;;;;0.52;0.50;;;23.70;72.50;;;;;;5046638;23;20055;-50
2022/04/08 03:44:18;;;;;;;2.55;0.63;;;23.70;72.50;;;;;;5050719;23;20441;-44
2022/04/08 03:46:20;;;;;;;2.15;0.60;;;23.70;72.40;;;;;;5046659;23;20033;-44
2022/04/08 03:48:22;;;;;;;1.38;0.82;;;23.70;72.40;;;;;;5046487;23;20487;-44
2022/04/08 03:50:25;;;;;;;0.47;0.40;;;23.70;72.40;;;;;;5051767;23;20033;-44
2022/04/08 03:52:32;;;;;;;1.27;1.00;;;23.70;72.40;;;;;;5047649;23;20021;-46
2022/04/08 03:54:34;;;;;;;2.45;0.63;;;23.70;72.40;;;;;;5049980;23;20025;-45
2022/04/08 03:56:37;;;;;;;1.05;0.50;;;23.70;72.90;;;;;;5054552;23;20049;-43
2022/04/08 03:58:39;;;;;;;2.38;0.70;;;23.70;73.10;;;;;;5061334;23;20029;-45
2022/04/08 04:00:42;;;;;;;1.40;0.52;;;23.70;73.30;;;;;;5056659;23;20988;-45
2022/04/08 04:02:44;;;;;;;1.83;0.80;;;23.80;73.50;;;;;;5054629;23;20033;-48
2022/04/08 04:04:46;;;;;;;3.25;0.90;;;23.80;73.50;;;;;;5057799;23;20435;-47
2022/04/08 04:06:48;;;;;;;1.67;0.60;;;23.80;73.50;;;;;;5052634;23;20482;-48
2022/04/08 04:08:51;;;;;;;1.45;0.60;;;23.80;73.50;;;;;;5058219;23;20044;-47
2022/04/08 04:10:53;;;;;;;2.95;0.80;;;23.80;73.40;;;;;;5063220;23;20026;-47
2022/04/08 04:12:55;;;;;;;2.95;0.90;;;23.90;73.40;;;;;;5062969;23;20025;-45
2022/04/08 04:14:57;;;;;;;1.23;0.57;;;23.90;74.00;;;;;;5055332;23;20032;-46
2022/04/08 04:16:59;;;;;;;4.25;1.00;;;24.00;73.40;;;;;;5049437;23;20030;-47
2022/04/08 04:19:02;;;;;;;1.83;0.85;;;24.00;73.20;;;;;;5058926;23;20033;-47
2022/04/08 04:21:05;;;;;;;3.33;0.60;;;24.00;73.30;;;;;;5057077;23;20040;-47
2022/04/08 04:23:23;;;;;;;1.30;0.60;;;24.00;73.30;;;;;;5065565;23;20056;-47
2022/04/08 04:25:26;;;;;;;1.58;0.70;;;24.00;73.30;;;;;;5028935;23;20701;-45
2022/04/08 04:27:28;;;;;;;4.55;0.90;;;24.00;73.30;;;;;;5036610;23;20026;-47
2022/04/08 04:30:07;;;;;;;5.60;0.75;;;24.00;73.30;;;;;;5055038;23;20474;-45
2022/04/08 04:32:10;;;;;;;2.70;0.65;;;24.00;73.30;;;;;;5008600;23;20026;-45
2022/04/08 04:34:13;;;;;;;0.85;0.40;;;24.00;73.20;;;;;;5008385;23;20069;-45
2022/04/08 04:36:15;;;;;;;2.17;0.53;;;24.10;73.30;;;;;;5005295;23;20076;-51
2022/04/08 04:38:17;;;;;;;3.15;0.70;;;24.10;73.20;;;;;;5035406;23;20045;-44
2022/04/08 04:40:20;;;;;;;5.68;0.65;;;24.10;73.10;;;;;;5036359;23;20029;-44
2022/04/08 04:42:22;;;;;;;1.08;0.70;;;24.20;73.30;;;;;;5009776;23;20535;-47
2022/04/08 04:44:26;;;;;;;2.47;0.90;;;24.20;73.10;;;;;;5034060;23;20149;-50
2022/04/08 04:46:28;;;;;;;1.50;0.40;;;24.20;73.10;;;;;;5012547;23;20967;-48
2022/04/08 04:48:30;;;;;;;2.50;0.75;;;24.20;72.90;;;;;;5009908;23;20125;-50
2022/04/08 04:50:33;;;;;;;8.00;1.37;;;24.20;72.50;;;;;;5008300;23;20034;-47
2022/04/08 04:52:35;;;;;;;2.80;0.80;;;24.20;72.50;;;;;;5034651;23;21316;-47
2022/04/08 04:54:37;;;;;;;0.93;0.60;;;24.20;72.70;;;;;;5040340;23;20060;-45
2022/04/08 04:56:39;;;;;;;2.67;0.53;;;24.30;72.70;;;;;;5032182;23;20029;-50
2022/04/08 04:58:41;;;;;;;5.22;0.80;;;24.30;72.60;;;;;;4983677;23;20034;-44
2022/04/08 05:00:44;;;;;;;1.70;0.65;;;24.30;72.70;;;;;;5037333;23;21008;-49
2022/04/08 05:02:47;;;;;;;1.67;0.82;;;24.30;72.70;;;;;;5029828;23;20206;-46
2022/04/08 05:04:49;;;;;;;3.15;1.33;;;24.30;72.70;;;;;;5036279;23;20022;-48
2022/04/08 05:06:51;;;;;;;0.83;0.50;;;24.30;72.70;;;;;;5036773;23;20033;-50
2022/04/08 05:08:54;;;;;;;1.83;0.80;;;24.30;72.70;;;;;;5046219;23;20526;-47
2022/04/08 05:10:58;;;;;;;1.10;0.70;;;24.30;72.60;;;;;;5038567;23;20029;-50
2022/04/08 05:13:00;;;;;;;3.80;0.90;;;24.30;72.70;;;;;;5039378;23;20304;-49
2022/04/08 05:15:07;;;;;;;1.55;0.50;;;24.30;72.80;;;;;;5041063;23;20713;-48
2022/04/08 05:17:09;;;;;;;1.25;0.50;;;24.30;72.70;;;;;;5044098;23;20112;-48
2022/04/08 05:19:11;;;;;;;1.05;0.47;;;24.30;72.70;;;;;;5036380;23;20120;-51
2022/04/08 05:21:13;;;;;;;1.73;0.50;;;24.30;72.70;;;;;;5040337;23;20038;-48
2022/04/08 05:23:15;;;;;;;0.63;0.43;;;24.30;72.70;;;;;;5048260;23;20091;-50
2022/04/08 05:25:17;;;;;;;0.90;0.47;;;24.30;72.70;;;;;;5047337;23;20133;-51
2022/04/08 05:27:20;;;;;;;1.17;0.40;;;24.30;72.70;;;;;;5016144;23;20681;-46
2022/04/08 05:29:22;;;;;;;1.65;0.60;;;24.30;72.70;;;;;;5043754;23;20492;-52
2022/04/08 05:31:24;;;;;;;2.67;0.57;;;24.30;72.70;;;;;;5047512;23;20039;-50
2022/04/08 05:33:26;;;;;;;0.95;0.63;;;24.30;72.70;;;;;;5042097;23;20025;-53
2022/04/08 05:35:28;;;;;;;5.05;0.82;;;24.30;72.70;;;;;;5014063;23;20041;-50
2022/04/08 05:37:30;;;;;;;4.13;0.70;;;24.30;72.80;;;;;;5047970;23;20037;-45
2022/04/08 05:39:32;;;;;;;1.48;0.68;;;24.30;72.70;;;;;;5045219;23;20377;-48
2022/04/08 05:41:34;;;;;;;0.80;0.40;;;24.30;72.90;;;;;;5041157;23;20468;-46
2022/04/08 05:43:37;;;;;;;1.40;0.50;;;24.30;73.00;;;;;;5047059;23;20048;-47
2022/04/08 05:45:39;;;;;;;0.88;0.40;;;24.30;73.10;;;;;;5049470;23;20033;-46
2022/04/08 05:47:41;;;;;;;1.33;0.77;;;24.30;72.90;;;;;;5039912;23;20029;-48
2022/04/08 05:49:43;;;;;;;1.63;0.73;;;24.30;72.90;;;;;;5042970;23;20041;-49
2022/04/08 05:51:47;;;;;;;1.55;0.82;;;24.30;72.90;;;;;;5047861;23;20401;-46
2022/04/08 05:53:49;;;;;;;0.90;0.63;;;24.30;72.90;;;;;;5045782;23;20029;-48
2022/04/08 05:55:51;;;;;;;2.55;1.20;;;24.40;72.90;;;;;;5042849;23;20212;-50
2022/04/08 05:57:55;;;;;;;6.93;1.25;;;24.40;73.00;;;;;;5043431;23;20036;-42
2022/04/08 06:00:01;;;;;;;2.80;0.60;;;24.40;72.90;;;;;;5020114;23;20153;-49
2022/04/08 06:02:04;;;;;;;0.95;0.43;;;24.40;72.90;;;;;;5046109;23;20025;-45
2022/04/08 06:04:06;;;;;;;1.15;0.50;;;24.40;72.80;;;;;;5041194;23;20664;-44
2022/04/08 06:06:08;;;;;;;3.47;0.70;;;24.40;72.80;;;;;;5039430;23;20034;-47
2022/04/08 06:08:10;;;;;;;1.15;0.60;;;24.40;72.70;;;;;;5023157;23;20137;-46
2022/04/08 06:10:13;;;;;;;1.90;0.70;;;24.50;72.80;;;;;;5015808;23;20073;-49
2022/04/08 06:12:15;;;;;;;1.88;0.70;;;24.50;72.70;;;;;;5043480;23;20076;-48
2022/04/08 06:14:17;;;;;;;2.53;0.70;;;24.50;72.70;;;;;;5048314;23;20064;-51
2022/04/08 06:16:23;;;;;;;0.93;0.47;;;24.50;72.70;;;;;;5047722;23;20025;-50
2022/04/08 06:18:25;;;;;;;1.40;0.63;;;24.50;72.70;;;;;;5045472;23;20029;-49
2022/04/08 06:20:27;;;;;;;1.17;0.30;;;24.40;72.70;;;;;;5042653;23;20870;-50
2022/04/08 06:22:29;;;;;;;1.23;0.50;;;24.40;72.70;;;;;;5048662;23;20872;-52
2022/04/08 06:24:31;;;;;;;0.70;0.60;;;24.40;72.70;;;;;;5043352;23;20048;-47
2022/04/08 06:26:35;;;;;;;0.75;0.40;;;24.40;72.70;;;;;;5042176;23;20029;-50
2022/04/08 06:28:38;;;;;;;1.67;0.77;;;24.40;72.70;;;;;;5021526;23;20081;-49
2022/04/08 06:30:40;;;;;;;1.23;0.40;;;24.40;73.20;;;;;;5051440;23;20037;-44
2022/04/08 06:32:43;;;;;;;0.77;0.40;;;24.40;72.70;;;;;;5017311;23;20868;-45
2022/04/08 06:34:47;;;;;;;0.85;0.35;;;24.40;72.70;;;;;;5043874;23;20073;-49
2022/04/08 06:36:49;;;;;;;1.02;0.50;;;24.40;72.80;;;;;;5049490;23;20032;-50
2022/04/08 06:38:51;;;;;;;1.08;0.50;;;24.40;72.80;;;;;;5045933;23;20144;-47
2022/04/08 06:40:53;;;;;;;1.05;0.50;;;24.40;72.80;;;;;;5020690;23;20061;-46
2022/04/08 06:42:59;;;;;;;0.68;0.50;;;24.40;72.90;;;;;;5047176;23;20410;-47
2022/04/08 06:45:01;;;;;;;1.13;0.80;;;24.40;72.80;;;;;;5027620;23;20099;-45
2022/04/08 06:47:04;;;;;;;0.77;0.47;;;24.40;72.80;;;;;;5047864;23;20057;-46
2022/04/08 06:49:06;;;;;;;1.95;0.60;;;24.40;72.90;;;;;;5042048;23;20576;-45
2022/04/08 06:51:08;;;;;;;1.60;0.47;;;24.40;72.90;;;;;;5044798;23;20029;-46
2022/04/08 06:53:10;;;;;;;1.95;0.40;;;24.40;73.00;;;;;;5044013;23;20107;-46
2022/04/08 06:55:13;;;;;;;1.42;0.90;;;24.40;73.60;;;;;;5039998;23;20099;-44
2022/04/08 06:57:15;;;;;;;2.30;0.60;;;24.40;73.00;;;;;;5036569;23;20558;-46
2022/04/08 06:59:17;;;;;;;1.90;0.50;;;24.40;73.00;;;;;;5021825;23;20357;-49
2022/04/08 07:01:19;;;;;;;1.25;0.52;;;24.40;73.00;;;;;;5043838;23;20033;-52
2022/04/08 07:03:21;;;;;;;0.38;0.38;;;24.40;73.00;;;;;;5039490;23;20053;-44
2022/04/08 07:05:28;;;;;;;2.07;0.60;;;24.40;72.80;;;;;;5043290;23;20060;-42
2022/04/08 07:07:36;;;;;;;0.98;0.57;;;24.40;72.80;;;;;;5010949;23;20228;-43
2022/04/08 07:09:38;;;;;;;2.50;0.60;;;24.30;72.70;;;;;;5036635;23;20051;-46
2022/04/08 07:11:40;;;;;;;1.70;0.60;;;24.30;72.70;;;;;;5032230;23;20882;-43
2022/04/08 07:13:42;;;;;;;4.05;0.43;;;24.30;72.70;;;;;;5003495;23;20030;-46
2022/04/08 07:15:44;;;;;;;4.15;0.68;;;24.30;73.10;;;;;;5041297;23;20048;-47
2022/04/08 07:17:47;;;;;;;1.75;0.70;;;24.30;73.40;;;;;;5008489;23;20863;-44
2022/04/08 07:19:49;;;;;;;0.97;0.60;;;24.20;73.40;;;;;;5034904;23;20030;-47
2022/04/08 07:21:51;;;;;;;1.27;0.63;;;24.20;73.40;;;;;;5039144;23;20025;-47
2022/04/08 07:23:53;;;;;;;1.17;0.40;;;24.20;73.20;;;;;;5013660;23;20036;-47
2022/04/08 07:25:55;;;;;;;3.88;0.65;;;24.20;73.20;;;;;;5008210;23;20026;-44
2022/04/08 07:28:00;;;;;;;1.13;0.60;;;24.20;73.10;;;;;;5034485;23;20559;-45
2022/04/08 07:30:02;;;;;;;1.23;0.40;;;24.20;73.10;;;;;;5016264;23;20532;-45
2022/04/08 07:32:05;;;;;;;1.63;0.70;;;24.20;73.70;;;;;;5038488;23;20032;-45
2022/04/08 07:34:07;;;;;;;2.35;0.85;;;24.20;73.00;;;;;;5033018;23;20033;-49
2022/04/08 07:36:11;;;;;;;1.60;0.85;;;24.10;73.00;;;;;;5037264;23;20218;-48
2022/04/08 07:38:13;;;;;;;2.60;1.20;;;24.10;72.90;;;;;;5011342;23;20698;-43
2022/04/08 07:40:16;;;;;;;1.30;0.90;;;24.10;72.90;;;;;;5031210;23;20504;-48
2022/04/08 07:42:18;;;;;;;3.08;1.17;;;24.10;72.90;;;;;;5007849;23;20033;-46
2022/04/08 07:44:20;;;;;;;4.27;0.93;;;24.10;72.80;;;;;;5040386;23;20384;-46
2022/04/08 07:46:23;;;;;;;2.22;0.90;;;24.10;72.80;;;;;;5040051;23;20130;-50
2022/04/08 07:48:27;;;;;;;1.33;0.73;;;24.10;72.80;;;;;;5013309;23;20077;-47
2022/04/08 07:50:29;;;;;;;1.88;0.93;;;24.00;72.80;;;;;;5036449;23;20406;-46
2022/04/08 07:52:32;;;;;;;2.92;1.27;;;24.00;73.50;;;;;;5044937;23;20882;-50
2022/04/08 07:54:34;;;;;;;1.48;0.70;;;24.00;72.80;;;;;;5040836;23;20083;-43
2022/04/08 07:56:36;;;;;;;3.47;1.20;;;24.00;72.80;;;;;;5016430;23;20029;-46
2022/04/08 07:58:38;;;;;;;2.22;1.20;;;24.00;72.80;;;;;;5046384;23;20162;-45
2022/04/08 08:00:41;;;;;;;1.43;0.97;;;24.00;72.80;;;;;;5047979;23;20663;-47
2022/04/08 08:02:44;;;;;;;2.53;0.80;;;24.00;72.80;;;;;;5039365;23;20275;-44
2022/04/08 08:04:46;;;;;;;3.30;0.93;;;23.90;72.70;;;;;;5039361;23;20128;-44
2022/04/08 08:06:48;;;;;;;2.60;1.00;;;24.00;72.80;;;;;;5047268;23;20531;-51
2022/04/08 08:08:50;;;;;;;2.17;0.85;;;23.90;72.80;;;;;;5038355;23;20560;-45
2022/04/08 08:10:54;;;;;;;1.15;0.65;;;23.90;72.80;;;;;;5038624;23;20113;-47
2022/04/08 08:12:58;;;;;;;1.67;0.90;;;23.90;72.80;;;;;;5043946;23;20029;-46
2022/04/08 08:14:59;;;;;;;;;;;23.90;72.80;;;;;;5048353;23;20100;-45
2022/04/08 08:17:01;;;;;;;1.27;0.70;;;23.90;72.80;;;;;;5040962;23;19952;-45
2022/04/08 08:19:03;;;;;;;2.28;0.80;;;23.90;72.80;;;;;;5042964;23;20033;-45
2022/04/08 08:21:06;;;;;;;0.90;0.50;;;23.90;72.80;;;;;;5048045;23;20084;-49
2022/04/08 08:23:08;;;;;;;1.80;0.98;;;23.80;72.80;;;;;;5044687;23;20593;-45
2022/04/08 08:25:11;;;;;;;1.23;0.73;;;23.80;72.80;;;;;;5050340;23;20022;-44
2022/04/08 08:27:14;;;;;;;1.75;1.02;;;23.80;72.80;;;;;;5051549;23;20041;-47
2022/04/08 08:29:16;;;;;;;1.27;0.38;;;23.80;72.80;;;;;;5053074;23;20053;-46
2022/04/08 08:31:18;;;;;;;1.67;0.73;;;23.80;72.90;;;;;;5045625;23;20029;-47
2022/04/08 08:33:21;;;;;;;3.33;1.05;;;23.80;72.90;;;;;;5021959;23;20149;-50
2022/04/08 08:35:25;;;;;;;2.00;1.08;;;23.80;73.00;;;;;;5054945;23;20036;-44
2022/04/08 08:37:27;;;;;;;1.63;0.65;;;23.80;72.90;;;;;;5056729;23;20302;-43
2022/04/08 08:39:29;;;;;;;1.95;0.88;;;23.80;72.90;;;;;;5057541;23;20052;-43
2022/04/08 08:41:33;;;;;;;2.38;0.60;;;23.80;72.90;;;;;;5062078;23;20025;-47
2022/04/08 08:43:35;;;;;;;;;;;23.80;72.90;;;;;;5064109;23;20041;-43
2022/04/08 08:45:38;;;;;;;0.95;0.50;;;23.80;72.90;;;;;;5051203;23;19917;-49
2022/04/08 08:47:40;;;;;;;1.10;0.60;;;23.70;72.90;;;;;;5050953;23;20032;-43
2022/04/08 08:49:50;;;;;;;1.48;0.70;;;23.70;72.90;;;;;;5054570;23;20739;-44
2022/04/08 08:51:58;;;;;;;0.63;0.50;;;23.70;72.90;;;;;;5055179;23;20026;-44
2022/04/08 08:54:00;;;;;;;1.15;0.60;;;23.70;73.00;;;;;;5054055;23;20131;-45
2022/04/08 08:56:02;;;;;;;0.75;0.40;;;23.70;73.00;;;;;;5045593;23;20101;-45
2022/04/08 08:58:04;;;;;;;2.45;0.85;;;23.70;73.00;;;;;;5043233;23;20044;-48
2022/04/08 09:00:15;;;;;;;1.17;0.67;;;23.70;73.00;;;;;;5046556;23;20025;-45
2022/04/08 09:02:22;;;;;;;1.52;0.70;;;23.60;73.00;;;;;;5031174;23;20811;-45
2022/04/08 09:04:25;;;;;;;1.63;0.90;;;23.70;73.00;;;;;;5043890;23;20029;-47
2022/04/08 09:06:28;;;;;;;1.23;0.50;;;23.70;73.00;;;;;;5039613;23;20033;-43
2022/04/08 09:08:34;;;;;;;1.88;0.80;;;23.60;73.00;;;;;;5013954;23;20033;-47
2022/04/08 09:10:42;;;;;;;1.38;0.88;;;23.60;73.00;;;;;;5041092;23;20056;-43
2022/04/08 09:12:45;;;;;;;2.00;0.60;;;23.60;73.00;;;;;;5046684;23;20087;-48
2022/04/08 09:14:55;;;;;;;1.23;1.00;;;23.60;73.00;;;;;;5016692;23;20434;-45
2022/04/08 09:17:03;;;;;;;2.05;0.75;;;23.60;73.00;;;;;;5043094;23;21566;-48
2022/04/08 09:19:14;;;;;;;0.95;0.60;;;23.60;73.10;;;;;;5039898;23;20029;-44
2022/04/08 09:21:26;;;;;;;1.48;0.60;;;23.60;73.10;;;;;;5040457;23;20591;-50
2022/04/08 09:23:29;;;;;;;1.92;0.70;;;23.60;73.10;;;;;;5038280;23;20029;-46
2022/04/08 09:25:31;;;;;;;2.05;0.70;;;23.60;73.10;;;;;;5044070;23;20121;-47
2022/04/08 09:27:35;;;;;;;1.38;0.63;;;23.60;73.10;;;;;;5044466;23;20108;-48
2022/04/08 09:29:41;;;;;;;0.60;0.35;;;23.60;73.10;;;;;;5041480;23;20033;-45
2022/04/08 09:31:44;;;;;;;0.65;0.50;;;23.50;73.00;;;;;;5037827;23;20270;-47
2022/04/08 09:33:53;;;;;;;1.37;0.70;;;23.50;73.00;;;;;;5036240;23;20340;-44
2022/04/08 09:35:57;;;;;;;1.27;0.65;;;23.50;73.10;;;;;;5040744;23;20112;-44
2022/04/08 09:38:03;;;;;;;2.58;0.70;;;23.50;73.10;;;;;;5042888;23;20033;-47
2022/04/08 09:40:08;;;;;;;1.35;0.70;;;23.50;73.10;;;;;;5040289;23;20108;-46
2022/04/08 09:42:11;;;;;;;1.10;0.80;;;23.50;73.10;;;;;;5010987;23;20193;-44
2022/04/08 09:44:15;;;;;;;2.28;0.90;;;23.50;73.10;;;;;;5038006;23;20655;-46
2022/04/08 09:46:18;;;;;;;1.00;0.50;;;23.50;73.10;;;;;;5039915;23;20036;-46
2022/04/08 09:48:20;;;;;;;1.90;0.68;;;23.50;73.10;;;;;;5044184;23;20032;-44
2022/04/08 09:50:24;;;;;;;3.00;0.70;;;23.50;73.20;;;;;;5039995;23;20573;-45
2022/04/08 09:52:26;;;;;;;1.58;0.60;;;23.50;73.20;;;;;;5037866;23;20112;-47
2022/04/08 09:54:31;;;;;;;1.58;0.73;;;23.50;73.20;;;;;;5042728;23;20025;-48
2022/04/08 09:56:36;;;;;;;0.70;0.47;;;23.50;73.20;;;;;;5044883;23;21130;-47
2022/04/08 09:58:40;;;;;;;1.58;0.40;;;23.50;73.20;;;;;;5036085;23;20036;-49
2022/04/08 10:00:45;;;;;;;1.65;0.75;;;23.40;73.20;;;;;;5037319;23;20607;-44
2022/04/08 10:02:51;;;;;;;3.13;0.65;;;23.40;73.10;;;;;;5041660;23;20546;-48
2022/04/08 10:04:55;;;;;;;2.15;0.80;;;23.40;73.20;;;;;;5042848;23;20080;-46
2022/04/08 10:06:58;;;;;;;1.15;0.60;;;23.40;73.20;;;;;;5040385;23;20356;-47
2022/04/08 10:09:01;;;;;;;1.58;0.60;;;23.40;73.20;;;;;;5037152;23;20080;-45
2022/04/08 10:11:22;;;;;;;1.52;0.90;;;23.40;73.10;;;;;;5035614;23;20036;-46
2022/04/08 10:13:47;;;;;;;2.28;0.75;;;23.40;73.20;;;;;;5034326;23;20033;-44
2022/04/08 10:16:10;;;;;;;1.65;0.68;;;23.30;73.10;;;;;;5040926;23;20087;-47
2022/04/08 10:18:12;;;;;;;1.05;0.50;;;23.40;73.20;;;;;;5035561;23;20029;-46
2022/04/08 10:20:22;;;;;;;3.30;0.70;;;23.30;73.20;;;;;;5044466;23;20101;-44
2022/04/08 10:22:24;;;;;;;1.10;0.47;;;23.30;73.20;;;;;;5040722;23;20479;-44
2022/04/08 10:24:28;;;;;;;1.10;0.50;;;23.30;73.20;;;;;;5009474;23;20424;-48
2022/04/08 10:26:30;;;;;;;1.27;0.55;;;23.30;73.20;;;;;;5036482;23;20040;-48
2022/04/08 10:28:39;;;;;;;2.38;0.75;;;23.30;73.20;;;;;;5040513;23;20132;-45
2022/04/08 10:30:49;;;;;;;2.33;0.80;;;23.30;73.20;;;;;;5044090;23;20767;-51
2022/04/08 10:33:03;;;;;;;1.08;0.57;;;23.30;73.20;;;;;;5018021;23;20076;-45
2022/04/08 10:35:19;;;;;;;2.22;0.65;;;23.30;73.30;;;;;;5016357;23;20033;-44
2022/04/08 10:37:25;;;;;;;1.23;0.75;;;23.30;73.20;;;;;;5015816;23;20854;-47
2022/04/08 10:39:27;;;;;;;0.70;0.40;;;23.30;73.30;;;;;;5046575;23;20029;-48
2022/04/08 10:41:30;;;;;;;1.10;0.50;;;23.30;73.20;;;;;;5038880;23;20029;-45
2022/04/08 10:43:46;;;;;;;2.00;0.80;;;23.30;73.30;;;;;;5039299;23;20426;-45